Time;durP1;ratioP1;P1;durP2;ratioP2;P2;SDS_P1;SDS_P2;PMS_P1;PMS_P2;Temp;Humidity;BMP_temperature;BMP_pressure;BME280_temperature;BME280_humidity;BME280_pressure;Samples;Min_cycle;Max_cycle;Signal;HPM_P1;HPM_P2
2022/10/14 00:01:47;;;;;;;;;9.25;9.25;;;;;16.81;75.63;101157.28;4936888;28;45531;-84
2022/10/14 00:04:13;;;;;;;;;9.33;8.00;;;;;16.83;75.77;101163.44;4926704;28;45305;-85
2022/10/14 00:06:39;;;;;;;;;9.00;7.00;;;;;16.82;75.58;101159.91;4926250;28;45225;-86
2022/10/14 00:09:07;;;;;;;;;9.00;8.00;;;;;16.83;75.56;101147.50;4927213;28;45185;-86
2022/10/14 00:11:34;;;;;;;;;8.00;7.00;;;;;16.85;75.55;101153.66;4926132;28;45586;-85
2022/10/14 00:14:04;;;;;;;;;9.50;9.00;;;;;16.82;75.46;101148.41;4908656;28;46852;-85
2022/10/14 00:16:34;;;;;;;;;7.33;6.33;;;;;16.81;75.77;101147.50;4907546;28;45357;-85
2022/10/14 00:19:00;;;;;;;;;9.00;7.50;;;;;16.81;75.87;101141.31;4908880;28;45344;-85
2022/10/14 00:21:27;;;;;;;;;8.00;6.75;;;;;16.87;75.63;101143.88;4922076;28;45546;-86
2022/10/14 00:23:52;;;;;;;;;10.00;7.75;;;;;16.87;75.75;101139.41;4904859;28;47141;-85
2022/10/14 00:26:32;;;;;;;;;6.67;6.67;;;;;16.82;76.05;101132.44;4919865;28;45391;-84
2022/10/14 00:28:59;;;;;;;;;8.00;6.75;;;;;16.85;75.93;101127.94;4905335;29;45375;-86
2022/10/14 00:31:26;;;;;;;;;7.00;6.00;;;;;16.84;75.57;101125.28;4922702;28;45314;-86
2022/10/14 00:33:51;;;;;;;;;8.00;8.00;;;;;16.84;75.89;101127.94;4920343;28;47520;-84
2022/10/14 00:36:19;;;;;;;;;6.67;6.67;;;;;16.86;76.14;101121.69;4923089;28;45204;-86
2022/10/14 00:38:45;;;;;;;;;7.33;6.33;;;;;16.83;76.20;101110.25;4907236;28;45367;-84
2022/10/14 00:41:21;;;;;;;;;11.50;8.50;;;;;16.86;76.20;101115.50;4932054;28;45490;-84
2022/10/14 00:43:53;;;;;;;;;8.33;8.00;;;;;16.84;76.21;101117.31;4920286;28;47190;-84
2022/10/14 00:46:18;;;;;;;;;8.00;8.00;;;;;16.75;75.96;101105.94;4915979;28;45214;-85
2022/10/14 00:48:44;;;;;;;;;11.00;11.00;;;;;16.74;76.59;101103.34;4924164;28;45430;-83
2022/10/14 00:51:09;;;;;;;;;8.25;8.25;;;;;16.85;76.23;101117.28;4909411;28;45532;-84
2022/10/14 00:53:36;;;;;;;;;10.00;10.00;;;;;16.70;76.41;101083.03;4924724;28;45527;-84
2022/10/14 00:56:04;;;;;;;;;9.75;8.50;;;;;16.85;76.25;101105.78;4920584;28;45406;-85
2022/10/14 00:58:29;;;;;;;;;10.00;9.00;;;;;16.85;76.41;101106.66;4904217;28;45393;-85
2022/10/14 01:00:55;;;;;;;;;9.00;9.00;;;;;16.90;76.27;101109.22;4907424;28;45301;-86
2022/10/14 01:03:22;;;;;;;;;6.67;6.00;;;;;16.81;76.21;101088.13;4899898;28;46921;-86
2022/10/14 01:06:20;;;;;;;;;5.33;3.33;;;;;16.85;76.04;101097.81;4923376;28;45201;-86
2022/10/14 01:09:12;;;;;;;;;5.00;4.00;;;;;16.81;76.14;101094.31;4924005;28;45501;-85
2022/10/14 01:11:50;;;;;;;;;4.67;4.67;;;;;16.84;75.99;101093.38;4920575;28;45245;-87
2022/10/14 01:14:30;;;;;;;;;6.67;4.67;;;;;16.77;76.20;101084.69;4925066;28;47018;-86
2022/10/14 01:17:01;;;;;;;;;2.33;2.33;;;;;16.84;75.96;101082.75;4920628;28;45434;-85
2022/10/14 01:19:47;;;;;;;;;5.00;4.00;;;;;16.83;76.07;101081.88;4900594;28;45537;-86
2022/10/14 01:22:20;;;;;;;;;4.00;2.67;;;;;16.85;76.02;101079.19;4912609;28;45549;-85
2022/10/14 01:24:58;;;;;;;;;4.67;4.67;;;;;16.83;75.83;101075.69;4906158;28;47543;-85
2022/10/14 01:27:41;;;;;;;;;2.00;2.00;;;;;16.83;75.71;101071.22;4918883;28;45435;-85
2022/10/14 01:30:19;;;;;;;;;3.00;3.00;;;;;16.75;76.02;101054.56;4894505;28;45462;-86
2022/10/14 01:33:01;;;;;;;;;3.33;3.33;;;;;16.81;75.94;101081.03;4920110;28;45359;-86
2022/10/14 01:35:34;;;;;;;;;2.33;2.33;;;;;16.81;76.13;101081.03;4905671;28;46436;-86
2022/10/14 01:38:12;;;;;;;;;3.00;3.00;;;;;16.77;76.34;101079.38;4906017;28;45290;-85
2022/10/14 01:40:49;;;;;;;;;3.67;3.67;;;;;16.73;76.08;101067.91;4924589;28;45375;-84
2022/10/14 01:43:16;;;;;;;;;4.33;4.33;;;;;16.62;76.35;101050.44;4906079;28;45279;-86
2022/10/14 01:45:44;;;;;;;;;5.00;4.00;;;;;16.70;76.54;101064.44;4905878;28;48337;-85
2022/10/14 01:48:12;;;;;;;;;4.00;3.67;;;;;16.61;76.64;101060.22;4906147;28;46213;-86
2022/10/14 01:50:40;;;;;;;;;3.33;3.00;;;;;16.59;76.34;101062.03;4906445;28;45337;-86
2022/10/14 01:53:32;;;;;;;;;2.33;2.00;;;;;16.62;76.72;101069.06;4906088;28;45399;-86
2022/10/14 01:56:01;;;;;;;;;4.00;4.00;;;;;16.59;76.53;101071.78;4895942;28;47357;-86
2022/10/14 01:58:30;;;;;;;;;2.00;2.00;;;;;16.55;76.93;101068.34;4908357;28;45649;-87
2022/10/14 02:00:56;;;;;;;;;3.67;3.67;;;;;16.57;77.02;101061.19;4918114;28;45414;-87
2022/10/14 02:03:21;;;;;;;;;4.00;4.00;;;;;16.55;77.21;101063.03;4930206;28;45411;-87
2022/10/14 02:05:59;;;;;;;;;3.67;3.00;;;;;16.54;77.30;101059.50;4923093;28;46458;-86
2022/10/14 02:08:46;;;;;;;;;2.00;2.00;;;;;16.53;77.38;101054.22;4907480;28;46515;-85
2022/10/14 02:11:17;;;;;;;;;3.33;2.33;;;;;16.50;77.52;101052.50;4906174;28;45419;-85
2022/10/14 02:13:49;;;;;;;;;2.33;2.33;;;;;16.50;77.71;101057.81;4905625;28;45458;-86
2022/10/14 02:16:33;;;;;;;;;4.00;4.00;;;;;16.49;77.82;101050.75;4918177;28;47441;-86
2022/10/14 02:19:16;;;;;;;;;3.67;3.00;;;;;16.49;77.55;101052.50;4895293;28;45995;-86
2022/10/14 02:22:00;;;;;;;;;3.67;3.67;;;;;16.45;77.67;101041.09;4921549;28;45272;-84
2022/10/14 02:24:29;;;;;;;;;3.00;3.00;;;;;16.50;77.90;101051.63;4902621;29;45350;-86
2022/10/14 02:26:57;;;;;;;;;4.00;4.00;;;;;16.48;77.79;101053.44;4893234;28;48150;-85
2022/10/14 02:29:26;;;;;;;;;7.00;5.67;;;;;16.48;77.92;101061.41;4918717;28;45352;-85
2022/10/14 02:31:53;;;;;;;;;3.33;3.33;;;;;16.41;78.15;101038.53;4905566;28;45268;-85
2022/10/14 02:34:22;;;;;;;;;4.00;3.00;;;;;16.44;78.18;101047.34;4921696;28;45181;-86
2022/10/14 02:36:49;;;;;;;;;3.67;3.67;;;;;16.49;78.19;101047.19;4902103;29;47113;-85
2022/10/14 02:39:23;;;;;;;;;3.00;3.00;;;;;16.46;78.24;101042.81;4918457;28;45485;-85
2022/10/14 02:41:48;;;;;;;;;4.33;4.33;;;;;16.47;78.14;101047.25;4930551;28;45308;-85
2022/10/14 02:44:14;;;;;;;;;3.00;3.00;;;;;16.39;78.15;101030.63;4906048;28;45372;-85
2022/10/14 02:46:40;;;;;;;;;3.67;2.00;;;;;16.48;78.26;101038.34;4924484;28;46944;-85
2022/10/14 02:49:05;;;;;;;;;2.33;2.00;;;;;16.51;78.57;101037.41;4925615;28;45304;-84
2022/10/14 02:51:31;;;;;;;;;4.00;4.00;;;;;16.47;78.49;101026.00;4924686;28;45340;-86
2022/10/14 02:53:56;;;;;;;;;5.00;3.00;;;;;16.51;78.26;101027.66;4924816;28;45386;-86
2022/10/14 02:56:23;;;;;;;;;3.00;3.00;;;;;16.53;78.00;101032.94;4906644;28;47342;-85
2022/10/14 02:58:48;;;;;;;;;4.00;4.00;;;;;16.51;78.42;101032.09;4927372;28;45286;-85
2022/10/14 03:01:13;;;;;;;;;5.00;4.00;;;;;16.47;78.39;101027.78;4905165;28;45666;-85
2022/10/14 03:03:39;;;;;;;;;4.00;3.00;;;;;16.45;78.40;101030.47;4903623;28;45860;-86
2022/10/14 03:06:05;;;;;;;;;2.00;2.00;;;;;16.48;78.56;101024.19;4927319;28;45335;-84
2022/10/14 03:08:30;;;;;;;;;3.67;3.67;;;;;16.45;78.09;101022.50;4913078;28;46070;-85
2022/10/14 03:10:56;;;;;;;;;4.00;3.67;;;;;16.53;78.62;101038.25;4925929;28;45365;-86
2022/10/14 03:13:21;;;;;;;;;4.00;4.00;;;;;16.53;78.61;101028.50;4925360;28;45379;-85
2022/10/14 03:15:49;;;;;;;;;5.00;5.00;;;;;16.49;78.41;101029.50;4909577;28;47512;-86
2022/10/14 03:18:15;;;;;;;;;5.00;5.00;;;;;16.50;78.70;101035.69;4925610;28;45264;-85
2022/10/14 03:20:43;;;;;;;;;5.00;5.00;;;;;16.49;78.44;101034.81;4925573;28;45541;-84
2022/10/14 03:23:08;;;;;;;;;4.33;4.33;;;;;16.51;78.63;101038.28;4925310;28;45628;-85
2022/10/14 03:25:34;;;;;;;;;3.67;3.67;;;;;16.41;78.33;101017.28;4921069;28;48284;-86
2022/10/14 03:27:59;;;;;;;;;5.00;5.00;;;;;16.48;78.35;101037.50;4904181;28;45241;-86
2022/10/14 03:30:24;;;;;;;;;3.67;2.33;;;;;16.49;78.51;101031.25;4908505;28;45244;-85
2022/10/14 03:32:50;;;;;;;;;3.00;3.00;;;;;16.49;78.42;101031.25;4925480;28;45504;-85
2022/10/14 03:35:15;;;;;;;;;2.67;2.00;;;;;16.48;78.49;101032.19;4908202;28;45498;-85
2022/10/14 03:37:40;;;;;;;;;4.00;3.67;;;;;16.44;78.50;101020.75;4925288;28;45430;-84
2022/10/14 03:40:07;;;;;;;;;4.00;4.00;;;;;16.46;78.60;101021.56;4909130;28;45327;-85
2022/10/14 03:42:32;;;;;;;;;0.00;0.00;;;;;16.44;78.21;101015.44;4908043;28;45428;-85
2022/10/14 03:44:57;;;;;;;;;3.00;3.00;;;;;16.37;78.27;100992.56;4920640;28;47043;-85
2022/10/14 03:47:23;;;;;;;;;3.33;3.33;;;;;16.46;78.72;101005.63;4903870;28;45431;-85
2022/10/14 03:49:48;;;;;;;;;3.67;2.67;;;;;16.49;78.33;101008.22;4926127;28;45319;-85
2022/10/14 03:52:14;;;;;;;;;3.00;3.00;;;;;16.45;78.67;101005.69;4930410;28;45399;-83
2022/10/14 03:54:39;;;;;;;;;2.67;2.67;;;;;16.48;78.18;101010.91;4914279;28;46591;-83
2022/10/14 03:57:05;;;;;;;;;2.33;2.33;;;;;16.45;78.29;101019.84;4930190;28;45363;-83
2022/10/14 03:59:31;;;;;;;;;3.00;3.00;;;;;16.47;78.30;101023.34;4919590;28;45353;-84
2022/10/14 04:01:56;;;;;;;;;3.00;3.00;;;;;16.45;78.36;101022.50;4935402;28;45217;-84
2022/10/14 04:04:21;;;;;;;;;3.00;3.00;;;;;16.38;78.28;101014.69;4916100;28;48295;-84
2022/10/14 04:06:47;;;;;;;;;2.00;2.00;;;;;16.36;78.16;101013.84;4927447;28;45213;-85
2022/10/14 04:09:12;;;;;;;;;2.00;2.00;;;;;16.39;78.31;101013.81;4927237;28;45645;-83
2022/10/14 04:11:37;;;;;;;;;2.00;2.00;;;;;16.38;78.23;101015.56;4936215;28;44781;-84
2022/10/14 04:14:03;;;;;;;;;2.00;2.00;;;;;16.36;78.10;101008.53;4910140;28;47230;-84
2022/10/14 04:16:28;;;;;;;;;3.00;3.00;;;;;16.35;77.90;101015.63;4924856;28;45288;-84
2022/10/14 04:18:54;;;;;;;;;4.00;3.00;;;;;16.35;78.11;101015.63;4907716;28;45596;-84
2022/10/14 04:21:19;;;;;;;;;3.33;2.00;;;;;16.40;78.18;101016.41;4921725;28;45456;-85
2022/10/14 04:23:45;;;;;;;;;2.00;2.00;;;;;16.34;78.01;101007.72;4919665;28;48556;-84
2022/10/14 04:26:10;;;;;;;;;3.00;3.00;;;;;16.39;77.98;101014.66;4901905;28;45342;-84
2022/10/14 04:28:36;;;;;;;;;4.00;4.00;;;;;16.31;78.13;100995.38;4907317;28;45384;-84
2022/10/14 04:31:03;;;;;;;;;2.00;2.00;;;;;16.38;77.96;101006.72;4923969;28;45614;-84
2022/10/14 04:33:28;;;;;;;;;2.00;2.00;;;;;16.34;77.92;101007.72;4919729;28;48329;-84
2022/10/14 04:36:03;;;;;;;;;2.67;2.67;;;;;16.35;78.00;101007.66;4902033;28;45395;-84
2022/10/14 04:38:29;;;;;;;;;1.67;1.67;;;;;16.32;77.88;101010.41;4920255;28;45336;-85
2022/10/14 04:40:56;;;;;;;;;1.33;1.33;;;;;16.34;77.76;101021.88;4910836;28;45547;-84
2022/10/14 04:43:22;;;;;;;;;4.00;4.00;;;;;16.34;77.92;101005.06;4922914;28;47462;-86
2022/10/14 04:45:48;;;;;;;;;3.00;2.67;;;;;16.24;77.82;100999.94;4906851;28;45279;-85
2022/10/14 04:48:14;;;;;;;;;4.33;4.33;;;;;16.34;77.91;101005.06;4919734;28;45463;-86
2022/10/14 04:50:40;;;;;;;;;2.00;2.00;;;;;16.34;77.91;100997.09;4920428;28;45241;-85
2022/10/14 04:53:05;;;;;;;;;3.00;3.00;;;;;16.33;77.85;101001.50;4907012;28;46947;-86
2022/10/14 04:55:31;;;;;;;;;2.33;2.33;;;;;16.23;77.70;100990.25;4921946;28;45292;-85
2022/10/14 04:57:56;;;;;;;;;3.00;3.00;;;;;16.28;78.10;100998.13;4925392;28;45421;-85
2022/10/14 05:00:21;;;;;;;;;2.33;2.33;;;;;16.31;77.70;101008.66;4909874;28;45438;-86
2022/10/14 05:02:47;;;;;;;;;2.00;2.00;;;;;16.24;78.08;100991.97;4912607;28;47171;-85
2022/10/14 05:05:13;;;;;;;;;5.00;5.00;;;;;16.21;77.77;100981.44;4919584;28;45275;-85
2022/10/14 05:07:40;;;;;;;;;3.33;3.00;;;;;16.28;77.74;100988.34;4904345;28;45547;-85
2022/10/14 05:10:06;;;;;;;;;2.00;2.00;;;;;16.26;77.75;100992.81;4923756;28;45271;-86
2022/10/14 05:12:32;;;;;;;;;4.00;4.00;;;;;16.28;77.72;100996.31;4905360;28;47852;-85
2022/10/14 05:14:57;;;;;;;;;3.00;3.00;;;;;16.25;77.34;100987.53;4919613;28;45373;-85
2022/10/14 05:17:23;;;;;;;;;4.00;4.00;;;;;16.25;77.56;100991.09;4922473;28;45185;-85
2022/10/14 05:19:48;;;;;;;;;3.00;2.67;;;;;16.25;77.50;100993.75;4919476;28;45606;-86
2022/10/14 05:22:14;;;;;;;;;3.00;3.00;;;;;16.22;77.51;100983.16;4922664;28;45280;-85
2022/10/14 05:24:39;;;;;;;;;4.00;3.67;;;;;16.18;77.46;100983.28;4922649;28;45184;-85
2022/10/14 05:27:05;;;;;;;;;5.00;5.00;;;;;16.25;77.67;100983.13;4906198;28;45311;-86
2022/10/14 05:29:30;;;;;;;;;3.00;2.00;;;;;16.26;77.62;100986.63;4903935;28;45583;-86
2022/10/14 05:31:56;;;;;;;;;2.00;2.00;;;;;16.20;77.68;100978.78;4904988;28;47355;-86
2022/10/14 05:34:21;;;;;;;;;4.00;4.00;;;;;16.23;77.74;100987.59;4904211;28;45782;-87
2022/10/14 05:36:47;;;;;;;;;4.00;4.00;;;;;16.22;78.01;100966.34;4922593;28;45463;-86
2022/10/14 05:39:12;;;;;;;;;4.00;3.00;;;;;16.24;77.78;100981.34;4919391;28;45456;-85
2022/10/14 05:41:38;;;;;;;;;4.00;4.00;;;;;16.21;77.83;100978.78;4915953;28;48139;-85
2022/10/14 05:44:04;;;;;;;;;5.00;5.00;;;;;16.19;77.77;100977.91;4919488;28;45285;-86
2022/10/14 05:46:29;;;;;;;;;5.33;4.33;;;;;16.19;78.00;100983.22;4922315;28;45263;-85
2022/10/14 05:48:59;;;;;;;;;5.33;5.33;;;;;16.17;77.92;100971.78;4904788;28;45689;-85
2022/10/14 05:51:25;;;;;;;;;5.67;5.00;;;;;16.12;77.92;100963.06;4904993;28;48003;-85
2022/10/14 05:53:50;;;;;;;;;3.00;3.00;;;;;16.19;78.04;100985.88;4919920;28;45571;-86
2022/10/14 05:56:16;;;;;;;;;4.67;4.67;;;;;16.19;78.00;100983.22;4921960;28;45398;-86
2022/10/14 05:58:41;;;;;;;;;5.67;5.67;;;;;16.18;78.21;100983.28;4907802;28;45484;-86
2022/10/14 06:01:08;;;;;;;;;5.00;5.00;;;;;16.12;77.99;100975.44;4919341;28;45470;-85
2022/10/14 06:03:34;;;;;;;;;4.00;4.00;;;;;16.16;78.17;100985.09;4928843;28;45541;-84
2022/10/14 06:05:59;;;;;;;;;5.00;4.67;;;;;16.13;78.24;100983.38;4922185;28;45534;-84
2022/10/14 06:08:26;;;;;;;;;5.50;5.50;;;;;16.15;78.14;100978.91;4922635;28;45460;-83
2022/10/14 06:10:52;;;;;;;;;6.33;5.67;;;;;16.09;77.98;100985.25;4922551;28;46362;-92
2022/10/14 06:13:17;;;;;;;;;5.67;5.00;;;;;16.16;78.00;100980.66;4920361;28;45218;-85
2022/10/14 06:15:43;;;;;;;;;6.00;6.00;;;;;16.04;78.11;100962.38;4921804;28;45189;-85
2022/10/14 06:18:09;;;;;;;;;6.00;5.00;;;;;16.19;78.25;100990.34;4921523;28;45615;-86
2022/10/14 06:20:34;;;;;;;;;5.00;5.00;;;;;16.19;78.09;100993.88;4906936;28;48370;-85
2022/10/14 06:23:01;;;;;;;;;4.67;4.67;;;;;16.21;77.90;100992.06;4921893;28;45234;-86
2022/10/14 06:25:27;;;;;;;;;5.67;4.33;;;;;16.23;77.98;100987.59;4908141;28;45360;-85
2022/10/14 06:27:52;;;;;;;;;6.00;6.00;;;;;16.19;77.88;100985.03;4906616;28;45559;-86
2022/10/14 06:30:18;;;;;;;;;7.00;6.25;;;;;16.27;77.87;100994.56;4923861;28;45451;-88
2022/10/14 06:32:43;;;;;;;;;10.50;9.50;;;;;16.29;77.63;100991.88;4907131;28;45409;-89
2022/10/14 06:35:09;;;;;;;;;8.25;6.25;;;;;16.30;77.93;100980.31;4904859;28;45462;-88
2022/10/14 06:37:35;;;;;;;;;8.00;7.00;;;;;16.30;77.57;100975.00;4903463;28;45349;-88
2022/10/14 06:40:00;;;;;;;;;7.00;6.00;;;;;16.36;77.70;100982.88;4911089;28;46436;-86
2022/10/14 06:42:26;;;;;;;;;8.00;7.00;;;;;16.41;77.91;100986.28;4930057;28;45274;-86
2022/10/14 06:44:51;;;;;;;;;7.67;6.00;;;;;16.46;77.78;100984.34;4904705;28;45277;-85
2022/10/14 06:47:17;;;;;;;;;6.00;6.00;;;;;16.49;77.53;100989.63;4921102;28;45632;-89
2022/10/14 06:49:42;;;;;;;;;7.00;7.00;;;;;16.46;77.33;100994.13;4907754;29;48265;-86
2022/10/14 06:52:09;;;;;;;;;6.00;5.67;;;;;16.48;77.47;101005.59;4903636;28;45284;-82
2022/10/14 06:54:34;;;;;;;;;9.33;8.00;;;;;16.44;76.97;100996.84;4907095;28;45445;-83
2022/10/14 06:57:00;;;;;;;;;8.00;7.33;;;;;16.48;77.12;101001.16;4907987;28;45600;-83
2022/10/14 06:59:27;;;;;;;;;5.67;5.67;;;;;16.50;76.98;100999.34;4916875;28;46558;-80
2022/10/14 07:01:53;;;;;;;;;7.33;7.33;;;;;16.47;77.02;100995.91;4925643;28;45425;-83
2022/10/14 07:04:19;;;;;;;;;7.33;7.33;;;;;16.51;76.71;101006.38;4904561;29;45257;-85
2022/10/14 07:06:44;;;;;;;;;9.33;7.00;;;;;16.47;76.48;101002.06;4902006;28;45395;-84
2022/10/14 07:09:10;;;;;;;;;6.00;6.00;;;;;16.52;76.82;101010.81;4921988;28;46347;-85
2022/10/14 07:11:35;;;;;;;;;5.25;5.25;;;;;16.49;76.49;101005.56;4923056;28;46093;-87
2022/10/14 07:14:01;;;;;;;;;3.00;3.00;;;;;16.44;76.81;100994.19;4924815;28;45301;-85
2022/10/14 07:16:27;;;;;;;;;5.50;5.50;;;;;16.52;76.41;101008.16;4907212;28;45542;-84
2022/10/14 07:18:52;;;;;;;;;6.67;5.67;;;;;16.53;76.33;101007.22;4923653;28;45288;-82
2022/10/14 07:21:17;;;;;;;;;4.00;4.00;;;;;16.52;76.00;101008.16;4923310;28;45198;-84
2022/10/14 07:23:43;;;;;;;;;4.67;4.33;;;;;16.54;75.80;101027.59;4924337;28;45476;-83
2022/10/14 07:26:08;;;;;;;;;3.67;3.67;;;;;16.56;75.99;101032.00;4923342;28;45562;-83
2022/10/14 07:28:34;;;;;;;;;5.67;3.00;;;;;16.51;75.73;101013.50;4924169;28;46687;-82
2022/10/14 07:31:02;;;;;;;;;5.33;4.33;;;;;16.51;75.44;101013.50;4921969;28;45253;-83
2022/10/14 07:33:27;;;;;;;;;4.00;4.00;;;;;16.54;75.53;101027.59;4923608;28;45426;-82
2022/10/14 07:35:53;;;;;;;;;4.00;2.00;;;;;16.59;75.39;101027.47;4923263;28;45370;-83
2022/10/14 07:38:18;;;;;;;;;4.33;4.33;;;;;16.56;75.08;101021.38;4923710;28;45895;-81
2022/10/14 07:40:44;;;;;;;;;3.00;3.00;;;;;16.57;74.70;101015.13;4929807;28;45435;-84
2022/10/14 07:43:09;;;;;;;;;2.00;2.00;;;;;16.62;74.48;101027.38;4907417;28;45345;-84
2022/10/14 07:45:39;;;;;;;;;2.67;2.67;;;;;16.69;74.47;101038.78;4923289;28;45284;-82
2022/10/14 07:48:04;;;;;;;;;3.00;3.00;;;;;16.70;73.99;101046.69;4906006;28;47067;-82
2022/10/14 07:50:30;;;;;;;;;2.67;2.67;;;;;16.75;73.81;101047.44;4907293;28;45359;-82
2022/10/14 07:52:55;;;;;;;;;5.00;4.00;;;;;16.67;73.73;101030.81;4924037;28;45501;-82
2022/10/14 07:55:21;;;;;;;;;4.67;4.67;;;;;16.78;73.41;101046.53;4923205;28;45486;-82
2022/10/14 07:57:46;;;;;;;;;3.33;3.33;;;;;16.76;73.25;101049.22;4903055;29;47069;-83
2022/10/14 08:00:12;;;;;;;;;2.67;2.33;;;;;16.74;73.37;101051.03;4906211;28;45358;-83
2022/10/14 08:02:37;;;;;;;;;4.00;3.00;;;;;16.63;73.09;101034.47;4925020;28;45598;-83
2022/10/14 08:05:03;;;;;;;;;6.00;4.33;;;;;16.69;73.12;101060.91;4903016;28;45533;-82
2022/10/14 08:07:28;;;;;;;;;5.00;4.00;;;;;16.66;73.22;101058.31;4923387;28;45411;-81
2022/10/14 08:09:54;;;;;;;;;3.67;3.00;;;;;16.70;73.28;101069.75;4923790;28;45414;-80
2022/10/14 08:12:20;;;;;;;;;5.67;2.33;;;;;16.63;73.07;101058.41;4923066;28;45557;-80
2022/10/14 08:14:45;;;;;;;;;3.00;2.00;;;;;16.67;72.73;101072.47;4923151;28;45423;-80
2022/10/14 08:17:11;;;;;;;;;2.00;2.00;;;;;16.59;73.13;101061.16;4922491;28;45543;-80
2022/10/14 08:19:36;;;;;;;;;4.67;3.33;;;;;16.59;72.95;101066.47;4923084;28;45264;-80
2022/10/14 08:22:01;;;;;;;;;4.00;3.00;;;;;16.61;72.95;101062.88;4923117;28;45302;-80
2022/10/14 08:24:27;;;;;;;;;3.33;2.00;;;;;16.54;72.96;101059.50;4922927;28;45204;-82
2022/10/14 08:26:55;;;;;;;;;5.00;4.00;;;;;16.53;73.14;101051.56;4905676;28;46235;-81
2022/10/14 08:29:21;;;;;;;;;4.00;4.00;;;;;16.56;73.00;101063.91;4905684;28;45548;-80
2022/10/14 08:31:47;;;;;;;;;5.33;4.00;;;;;16.54;73.00;101070.13;4905663;28;45436;-81
2022/10/14 08:34:13;;;;;;;;;4.00;4.00;;;;;16.57;73.17;101063.84;4902716;28;45416;-81
2022/10/14 08:36:39;;;;;;;;;3.00;3.00;;;;;16.62;72.86;101066.41;4923026;28;45427;-81
2022/10/14 08:39:05;;;;;;;;;2.00;2.00;;;;;16.65;73.08;101076.97;4905560;28;45468;-79
2022/10/14 08:41:36;;;;;;;;;2.33;2.33;;;;;16.67;73.18;101075.16;4913292;28;45380;-80
2022/10/14 08:44:14;;;;;;;;;2.33;2.33;;;;;16.69;73.21;101070.69;4922481;28;45320;-82
2022/10/14 08:46:56;;;;;;;;;3.00;3.00;;;;;16.77;73.27;101071.41;4922490;28;45427;-82
2022/10/14 08:49:42;;;;;;;;;4.00;4.00;;;;;16.81;73.10;101080.16;4905210;28;45410;-82
2022/10/14 08:52:22;;;;;;;;;4.00;4.00;;;;;16.80;72.71;101067.78;4922553;28;45354;-81
2022/10/14 08:54:54;;;;;;;;;2.00;2.00;;;;;16.76;72.91;101069.63;4914456;28;45209;-82
2022/10/14 08:57:24;;;;;;;;;4.67;4.33;;;;;16.81;72.97;101062.41;4922072;28;45518;-82
2022/10/14 08:59:50;;;;;;;;;3.67;1.33;;;;;16.80;72.79;101052.69;4925699;28;45177;-82
2022/10/14 09:02:34;;;;;;;;;2.50;2.50;;;;;16.89;72.94;101072.88;4922411;28;45405;-81
2022/10/14 09:05:01;;;;;;;;;4.33;4.33;;;;;16.91;72.47;101071.06;4922503;28;45741;-82
2022/10/14 09:07:26;;;;;;;;;3.00;3.00;;;;;16.90;72.67;101062.22;4904937;28;47201;-83
2022/10/14 09:09:57;;;;;;;;;5.00;4.00;;;;;16.98;72.70;101067.34;4931433;28;45550;-83
2022/10/14 09:12:30;;;;;;;;;6.00;5.00;;;;;17.08;72.56;101063.53;4910251;28;45293;-82
2022/10/14 09:15:11;;;;;;;;;2.00;2.00;;;;;17.12;72.72;101059.88;4919378;28;45255;-82
2022/10/14 09:17:44;;;;;;;;;2.00;2.00;;;;;17.12;72.16;101051.03;4921367;28;45460;-83
2022/10/14 09:20:20;;;;;;;;;6.67;5.67;;;;;17.14;71.96;101055.38;4901543;28;45452;-83
2022/10/14 09:23:03;;;;;;;;;3.00;3.00;;;;;17.12;71.89;101046.56;4920980;28;45389;-83
2022/10/14 09:25:33;;;;;;;;;2.00;2.00;;;;;16.99;72.06;101034.50;4913394;28;45415;-83
2022/10/14 09:27:58;;;;;;;;;4.00;3.00;;;;;17.08;71.97;101039.59;4921343;28;45521;-85
2022/10/14 09:30:24;;;;;;;;;6.00;6.00;;;;;17.03;72.12;101032.66;4904133;28;45300;-82
2022/10/14 09:32:53;;;;;;;;;3.33;3.00;;;;;17.12;72.24;101041.25;4923958;28;45575;-83
2022/10/14 09:35:29;;;;;;;;;2.00;2.00;;;;;17.13;71.99;101048.34;4903289;28;45636;-82
2022/10/14 09:37:55;;;;;;;;;1.00;1.00;;;;;17.06;71.84;101028.13;4926473;28;45375;-82
2022/10/14 09:40:56;;;;;;;;;2.00;1.67;;;;;17.14;71.94;101038.56;4925937;28;45249;-81
2022/10/14 09:43:23;;;;;;;;;2.00;2.00;;;;;17.16;71.63;101042.03;4910970;28;45178;-82
2022/10/14 09:46:09;;;;;;;;;2.00;2.00;;;;;17.12;72.02;101032.41;4912465;28;45641;-82
2022/10/14 09:48:50;;;;;;;;;2.67;2.67;;;;;17.17;71.55;101039.34;4920734;28;45634;-82
2022/10/14 09:51:29;;;;;;;;;3.00;3.00;;;;;17.18;71.60;101030.44;4909703;28;45427;-82
2022/10/14 09:54:03;;;;;;;;;3.00;3.00;;;;;17.22;71.66;101025.06;4914436;28;45274;-82
2022/10/14 09:56:37;;;;;;;;;2.33;2.33;;;;;17.27;71.77;101039.09;4924386;28;45495;-82
2022/10/14 09:59:04;;;;;;;;;3.67;3.33;;;;;17.20;71.58;101025.94;4911611;28;47575;-81
2022/10/14 10:01:39;;;;;;;;;4.33;4.33;;;;;17.27;72.07;101036.41;4902942;28;45274;-81
2022/10/14 10:04:30;;;;;;;;;3.33;3.33;;;;;17.39;71.92;101049.41;4907392;28;45261;-82
2022/10/14 10:06:58;;;;;;;;;3.00;3.00;;;;;17.40;71.29;101045.81;4920055;28;45197;-81
2022/10/14 10:09:24;;;;;;;;;4.00;3.00;;;;;17.32;71.55;101032.75;4926405;28;45952;-81
2022/10/14 10:11:50;;;;;;;;;3.67;3.00;;;;;17.40;71.49;101040.50;4923999;28;45303;-83
2022/10/14 10:14:32;;;;;;;;;2.33;2.00;;;;;17.44;71.23;101044.84;4928146;28;45336;-81
2022/10/14 10:17:07;;;;;;;;;4.00;3.00;;;;;17.53;71.14;101038.38;4922793;28;45268;-80
2022/10/14 10:19:34;;;;;;;;;2.00;2.00;;;;;17.55;71.25;101037.44;4924187;28;46035;-83
2022/10/14 10:22:18;;;;;;;;;4.00;3.00;;;;;17.60;70.90;101035.50;4906582;28;45333;-83
2022/10/14 10:24:44;;;;;;;;;2.00;2.00;;;;;17.65;70.66;101030.06;4923687;28;45262;-79
2022/10/14 10:27:23;;;;;;;;;2.33;2.33;;;;;17.70;71.20;101019.28;4919270;28;45300;-85
2022/10/14 10:29:49;;;;;;;;;2.00;2.00;;;;;17.82;70.70;101024.28;4903635;28;48250;-81
2022/10/14 10:32:21;;;;;;;;;3.33;3.00;;;;;17.94;70.56;101013.28;4906365;28;45518;-83
2022/10/14 10:35:09;;;;;;;;;1.33;1.33;;;;;18.07;70.14;101019.09;4924189;28;45444;-83
2022/10/14 10:38:05;;;;;;;;;3.00;3.00;;;;;18.22;70.14;101013.28;4929198;28;45377;-83
2022/10/14 10:40:37;;;;;;;;;2.00;2.00;;;;;18.30;69.14;101013.03;4923723;28;45647;-84
2022/10/14 10:43:36;;;;;;;;;2.00;2.00;;;;;18.36;69.36;101015.50;4909341;28;45528;-82
2022/10/14 10:46:14;;;;;;;;;1.00;1.00;;;;;18.37;68.20;101000.41;4909326;28;45330;-83
2022/10/14 10:49:04;;;;;;;;;1.33;1.33;;;;;18.39;68.14;100994.13;4926117;28;45838;-81
2022/10/14 10:51:41;;;;;;;;;2.00;2.00;;;;;18.41;68.14;100992.25;4926009;28;45533;-81
2022/10/14 10:54:38;;;;;;;;;2.00;2.00;;;;;18.50;67.85;100991.09;4932857;28;45252;-83
2022/10/14 10:57:29;;;;;;;;;1.00;1.00;;;;;18.43;67.44;100966.41;4911366;28;45389;-80
2022/10/14 11:00:07;;;;;;;;;2.00;2.00;;;;;18.56;67.27;100977.56;4938222;28;44867;-84
2022/10/14 11:02:57;;;;;;;;;1.67;1.67;;;;;18.58;66.85;100988.16;4943168;28;45065;-82
2022/10/14 11:05:41;;;;;;;;;1.00;1.00;;;;;18.52;66.46;100978.56;4940731;28;44875;-82
2022/10/14 11:14:12;;;;;;;;;1.00;1.00;;;;;18.14;65.20;100977.16;4930381;28;45173;-83
2022/10/14 11:17:07;;;;;;;;;1.00;1.00;;;;;17.98;65.33;100966.09;4940841;28;45334;-81
2022/10/14 11:19:39;;;;;;;;;2.00;1.00;;;;;17.92;65.81;100963.63;4939372;28;45219;-81
2022/10/14 11:22:41;;;;;;;;;0.00;0.00;;;;;17.90;65.42;100963.66;4916667;28;45379;-81
2022/10/14 11:25:21;;;;;;;;;1.00;1.00;;;;;17.85;65.91;100931.84;4906602;28;46873;-83
2022/10/14 11:28:02;;;;;;;;;1.00;1.00;;;;;18.01;66.28;100955.34;4925654;28;45467;-82
2022/10/14 11:30:43;;;;;;;;;0.33;0.00;;;;;18.01;65.64;100948.22;4916143;28;45462;-82
2022/10/14 11:33:08;;;;;;;;;0.00;0.00;;;;;18.00;66.66;100933.16;4916216;28;45253;-83
2022/10/14 11:35:55;;;;;;;;;2.00;2.00;;;;;18.02;66.48;100941.97;4923188;28;45222;-81
2022/10/14 11:38:50;;;;;;;;;1.00;1.00;;;;;17.94;66.69;100919.16;4904387;28;46370;-84
2022/10/14 11:41:25;;;;;;;;;2.00;2.00;;;;;17.94;66.53;100929.81;4928390;28;45503;-85
2022/10/14 11:44:24;;;;;;;;;1.33;1.33;;;;;17.80;66.68;100907.16;4923720;28;45645;-87